Last Month

Pierce College

Hourly Data | America/Los_Angeles
as of 5/7/21 12:57 PM PDT
Date & Time Temp Max (°F) Temp Min (°F) RH (%) Dew Pt (°F) Latest Rain (In) Soil Temp (°F) Soil Moist (%) Wind Spd (mph) Wind Dir (°) Wind Gust (mph) Leaf Wet Raw (mV) Net Radiation (W/m²) Evap Pan Max Wind (mph) Evap Pan H2O Max Temp (°F) Evap Pan Level (In)
4/30/21 - 2300 65.9 63.0 37 37.8 0.00 74.4 31.6 0.6 SSE | 159 1.6 264 -64 1.3 56.6 3.7
4/30/21 - 2200 68.4 65.9 32 36.6 0.00 75.3 31.6 0.7 S | 171 2.0 264 -67 1.0 59.4 3.7
4/30/21 - 2100 75.4 68.3 28 35.5 0.00 76.4 31.6 0.5 S | 174 2.0 264 -76 1.2 66.8 3.7
4/30/21 - 2000 80.2 75.3 20 33.7 0.00 76.7 31.6 1.7 WSW | 253 4.5 262 -89 2.9 73.8 3.7
4/30/21 - 1900 87.8 80.0 15 30.1 0.00 76.4 31.5 0.9 WNW | 294 5.5 262 -94 4.0 84.4 3.8
4/30/21 - 1800 90.9 87.6 8 20.4 0.00 74.0 31.4 5.0 WSW | 248 10.0 261 -3 7.0 95.3 3.8
4/30/21 - 1700 94.2 90.7 9 25.8 0.00 72.8 31.4 6.4 WSW | 253 13.3 261 150 9.9 102.7 3.8
4/30/21 - 1600 97.9 94.0 11 32.0 0.00 72.3 31.3 5.1 WSW | 254 12.1 261 307 8.2 109.5 3.8
4/30/21 - 1500 97.1 95.1 10 30.4 0.00 71.6 31.2 5.4 SW | 234 10.6 262 433 8.3 115.8 3.8
4/30/21 - 1400 98.3 95.7 10 31.4 0.00 71.2 31.1 5.6 SW | 230 12.3 261 515 8.6 125.1 3.8
4/30/21 - 1300 101.2 95.4 10 32.1 0.00 70.8 31.1 3.2 SE | 133 8.4 261 559 5.8 143.7 3.8
4/30/21 - 1200 99.2 95.2 9 28.7 0.00 70.1 31.0 1.5 N | 6 4.7 261 568 3.8 149.5 3.8
4/30/21 - 1100 96.2 91.8 11 32.3 0.00 70.0 31.0 1.4 N | 352 4.9 260 540 4.4 144.9 3.8
4/30/21 - 1000 91.9 84.2 14 32.5 0.00 69.6 31.0 1.7 NE | 37 4.4 261 477 2.5 115.5 3.8
4/30/21 - 0900 84.2 77.6 19 35.2 0.00 70.3 31.1 0.9 N | 4 3.7 261 380 2.1 112.3 3.8
4/30/21 - 0800 77.8 66.4 30 38.0 0.00 70.3 31.2 0.3 N | 2 1.9 262 169 0.7 100.0 3.7
4/30/21 - 0700 66.5 56.5 44 39.0 0.00 70.6 31.3 0.3 NE | 43 1.3 266 -6 0.0 59.5 3.7
4/30/21 - 0600 56.6 53.4 51 36.6 0.00 70.9 31.3 0.3 SSE | 149 1.3 267 -44 0.0 46.3 3.7
4/30/21 - 0500 55.3 53.6 49 35.7 0.00 71.2 31.4 0.2 SSE | 154 1.3 267 -56 0.6 45.3 3.7
4/30/21 - 0400 56.8 54.8 47 35.7 0.00 71.4 31.4 0.4 SSE | 163 1.4 266 -58 0.8 47.2 3.7
4/30/21 - 0300 59.1 56.6 44 36.1 0.00 71.6 31.4 0.3 SSE | 158 1.5 266 -59 0.0 49.1 3.7
4/30/21 - 0200 60.0 57.9 41 35.5 0.00 71.8 31.4 0.8 SSE | 160 2.1 266 -62 1.2 47.8 3.7
4/30/21 - 0100 60.7 59.2 40 35.5 0.00 72.0 31.5 0.5 S | 185 2.2 265 -62 1.4 49.8 3.7
4/30/21 - 0000 63.2 60.3 36 34.5 0.00 72.0 31.5 0.3 S | 175 2.1 264 -63 1.2 51.2 3.7
4/29/21 - 2300 66.0 63.0 31 33.2 0.00 72.3 31.5 0.5 SSE | 156 1.5 264 -65 1.1 55.7 3.7
4/29/21 - 2200 68.4 65.9 25 30.3 0.00 72.2 31.5 0.8 S | 178 3.0 263 -68 1.4 58.5 3.7
4/29/21 - 2100 71.8 67.5 23 29.4 0.00 72.1 31.5 0.7 SSE | 162 2.6 263 -72 1.5 60.2 3.7
4/29/21 - 2000 78.6 70.7 16 25.5 0.00 72.0 31.5 1.2 SSW | 193 4.5 262 -83 2.1 70.2 3.7
4/29/21 - 1900 83.7 78.3 11 22.0 0.00 71.7 31.4 2.9 SW | 230 6.7 262 -91 5.5 83.8 3.8
4/29/21 - 1800 89.3 83.6 10 24.0 0.00 71.4 31.4 4.5 SW | 232 10.0 262 5 7.3 92.8 3.8
4/29/21 - 1700 91.1 89.0 10 26.4 0.00 70.9 31.3 4.1 W | 268 11.4 262 160 7.9 99.3 3.8
4/29/21 - 1600 93.3 89.9 11 30.1 0.00 70.6 31.2 7.0 SW | 230 12.7 262 305 8.6 107.0 3.8
4/29/21 - 1500 94.8 92.4 9 26.2 0.00 69.8 31.1 6.3 SSW | 194 14.7 262 437 11.2 113.5 3.8
4/29/21 - 1400 99.5 94.4 7 24.2 0.00 69.2 31.1 2.3 NE | 40 8.9 261 484 6.1 122.4 3.8
4/29/21 - 1300 98.7 94.2 7 23.1 0.00 68.7 31.0 2.3 SSW | 199 6.6 261 563 6.1 138.9 3.8
4/29/21 - 1200 96.0 92.4 8 22.6 0.00 68.4 31.0 1.7 NNW | 330 6.1 261 576 5.2 141.8 3.8
4/29/21 - 1100 92.6 87.2 11 29.0 0.00 68.0 30.9 1.4 ENE | 70 5.2 261 544 2.9 135.1 3.8
4/29/21 - 1000 87.8 81.1 15 31.7 0.00 68.1 30.9 1.1 NNE | 25 3.9 261 478 2.4 109.7 3.7
4/29/21 - 0900 81.5 75.5 21 34.6 0.00 68.1 31.0 1.2 NNE | 22 3.6 262 378 1.9 106.6 3.7
4/29/21 - 0800 77.6 61.7 29 34.4 0.00 68.4 31.1 0.9 ESE | 112 3.7 262 156 2.4 98.0 3.7
4/29/21 - 0700 61.8 52.9 44 35.4 0.00 68.6 31.2 0.5 NNE | 31 2.8 266 -11 2.3 56.8 3.7
4/29/21 - 0600 52.9 49.0 52 33.6 0.00 68.8 31.2 0.5 SSE | 147 2.6 267 -47 1.5 42.9 3.7
4/29/21 - 0500 51.1 49.3 50 32.6 0.00 69.0 31.3 0.8 S | 170 3.7 267 -59 2.6 42.1 3.7
4/29/21 - 0400 53.9 50.9 45 31.7 0.00 69.3 31.3 0.4 SSE | 155 2.4 267 -60 2.2 42.7 3.7
4/29/21 - 0300 57.0 53.7 39 30.9 0.00 69.3 31.3 0.9 S | 174 3.4 266 -62 1.9 44.7 3.7
4/29/21 - 0200 58.5 55.0 34 28.6 0.00 69.8 31.4 0.9 SSE | 152 3.1 266 -64 1.7 45.0 3.7
4/29/21 - 0100 58.1 55.2 35 29.6 0.00 69.6 31.4 0.7 SSE | 162 3.2 266 -65 1.4 47.6 3.7
4/29/21 - 0000 62.4 58.1 30 28.8 0.00 70.0 31.4 0.9 SSE | 168 2.9 265 -67 1.9 48.8 3.7
4/28/21 - 2300 61.5 59.4 35 32.7 0.00 70.1 31.4 0.8 SSE | 160 3.3 266 -70 2.5 51.5 3.7
4/28/21 - 2200 64.5 60.0 37 35.8 0.00 70.1 31.4 1.0 SSE | 160 4.3 266 -73 3.0 53.6 3.7
4/28/21 - 2100 67.9 63.0 34 36.3 0.00 70.2 31.5 1.1 S | 184 3.7 266 -78 2.1 58.0 3.7
4/28/21 - 2000 72.3 67.9 28 35.4 0.00 70.0 31.4 1.8 SSW | 196 4.3 264 -83 3.0 65.3 3.7
4/28/21 - 1900 79.2 72.4 21 33.5 0.00 69.7 31.4 2.9 WSW | 239 9.4 263 -88 7.2 78.3 3.7
4/28/21 - 1800 82.7 78.8 16 30.8 0.00 69.4 31.3 5.4 WSW | 247 11.4 263 7 7.7 86.2 3.8
4/28/21 - 1700 84.3 81.6 14 28.3 0.00 69.0 31.3 6.5 W | 268 16.5 262 166 11.3 90.2 3.7
4/28/21 - 1600 87.7 83.6 12 26.8 0.00 68.4 31.1 6.5 W | 261 17.3 262 309 11.3 94.8 3.8
4/28/21 - 1500 89.8 85.5 10 24.7 0.00 67.9 31.0 5.2 W | 266 13.0 262 439 9.5 100.7 3.8
4/28/21 - 1400 89.8 87.3 9 20.9 0.00 67.3 31.0 3.0 NNW | 335 8.9 262 519 6.3 105.5 3.8
4/28/21 - 1300 89.1 84.8 8 17.8 0.00 66.8 31.0 3.5 NNE | 26 9.5 261 579 6.0 122.4 3.8
4/28/21 - 1200 85.5 82.3 9 18.5 0.00 66.6 30.9 4.4 NNE | 17 11.4 261 599 4.7 126.0 3.7
4/28/21 - 1100 83.3 80.6 10 19.8 0.00 66.3 30.9 4.1 N | 5 12.7 261 560 6.3 126.1 3.7
4/28/21 - 1000 81.1 75.8 14 25.4 0.00 66.4 30.9 2.4 NNW | 346 8.4 262 489 5.4 102.8 3.7
4/28/21 - 0900 76.0 71.0 18 28.2 0.00 66.5 30.9 1.9 NNW | 343 6.9 262 386 5.8 98.3 3.7
4/28/21 - 0800 70.9 62.4 26 30.9 0.00 66.6 31.0 2.8 W | 268 6.6 263 148 4.8 87.8 3.7
4/28/21 - 0700 62.5 50.3 49 37.1 0.00 66.9 31.1 1.4 WSW | 250 4.4 266 -19 3.5 53.8 3.7
4/28/21 - 0600 50.5 45.4 66 36.4 0.00 67.2 31.1 0.9 SSE | 164 4.2 270 -46 2.5 41.5 3.7
4/28/21 - 0500 46.2 44.5 74 37.6 0.00 67.5 31.2 0.8 SSE | 156 3.7 271 -59 2.5 38.6 3.7
4/28/21 - 0400 46.7 45.9 76 39.0 0.00 67.6 31.3 0.8 S | 190 3.3 272 -59 2.3 39.2 3.7
4/28/21 - 0300 48.9 45.9 76 39.9 0.00 67.8 31.3 0.9 SSE | 158 6.2 273 -60 3.2 39.8 3.7
4/28/21 - 0200 47.9 46.4 79 41.0 0.00 68.1 31.3 0.7 SSE | 159 2.7 273 -57 1.8 38.7 3.7
4/28/21 - 0100 48.9 47.2 78 41.5 0.00 68.3 31.4 0.8 SSE | 154 2.4 271 -60 1.4 39.1 3.7
4/28/21 - 0000 49.9 48.6 75 41.4 0.00 68.4 31.4 0.5 SSE | 162 1.6 271 -61 0.8 40.6 3.7
4/27/21 - 2300 51.7 49.7 70 41.0 0.00 68.7 31.4 0.5 S | 173 2.4 271 -63 1.4 43.3 3.7
4/27/21 - 2200 53.9 50.9 65 41.0 0.00 68.8 31.5 0.8 S | 170 2.5 270 -66 1.7 45.3 3.7
4/27/21 - 2100 58.9 53.7 56 40.5 0.00 68.8 31.5 0.8 SSE | 164 3.1 269 -68 1.6 48.9 3.7
4/27/21 - 2000 61.2 58.6 47 39.6 0.00 68.9 31.5 1.4 SW | 235 2.9 267 -72 1.7 54.3 3.7
4/27/21 - 1900 63.7 61.2 41 38.8 0.00 68.7 31.5 2.7 WSW | 239 7.9 267 -74 5.6 63.4 3.7
4/27/21 - 1800 65.8 63.3 39 38.7 0.00 68.4 31.4 6.1 WSW | 238 11.8 266 22 8.5 70.2 3.7
4/27/21 - 1700 69.4 65.3 35 38.1 0.00 68.2 31.4 6.5 WSW | 243 12.0 266 181 8.8 74.8 3.7
4/27/21 - 1600 69.4 66.5 35 39.1 0.00 68.2 31.4 2.2 W | 280 9.3 266 133 5.9 78.6 3.7
4/27/21 - 1500 66.7 64.4 40 40.6 0.00 68.0 31.4 2.7 SSE | 156 8.1 266 139 5.4 85.1 3.7
4/27/21 - 1400 67.1 63.4 43 42.2 0.00 67.4 31.3 4.7 SSE | 161 11.3 266 351 8.7 86.0 3.7
4/27/21 - 1300 68.5 63.9 40 40.4 0.00 67.6 31.3 4.5 S | 175 14.1 266 285 8.1 104.3 3.7
4/27/21 - 1200 70.2 64.7 35 38.3 0.00 67.1 31.2 3.4 W | 264 11.8 264 494 8.0 110.2 3.7
4/27/21 - 1100 66.8 61.6 39 38.4 0.00 67.0 31.2 3.1 SSW | 210 10.8 264 565 6.8 110.3 3.7
4/27/21 - 1000 64.5 59.4 44 39.4 0.00 67.0 31.2 1.5 NNE | 30 5.6 264 478 3.2 87.1 3.7
4/27/21 - 0900 61.0 56.9 52 40.8 0.00 67.1 31.2 1.8 NE | 51 7.3 265 368 3.6 85.4 3.7
4/27/21 - 0800 58.0 53.0 64 42.9 0.00 67.3 31.3 2.0 E | 88 7.0 266 205 3.5 81.9 3.7
4/27/21 - 0700 53.0 47.8 74 43.1 0.00 67.3 31.3 0.4 ESE | 114 3.7 269 42 2.2 58.2 3.7
4/27/21 - 0600 48.1 46.9 79 41.3 0.00 67.6 31.3 0.2 S | 178 1.3 271 -35 0.0 44.4 3.7
4/27/21 - 0500 48.7 46.3 78 40.9 0.00 67.7 31.4 0.3 S | 173 1.6 271 -42 0.0 44.6 3.7
4/27/21 - 0400 50.0 48.5 73 41.2 0.00 67.9 31.4 0.2 SE | 139 1.6 271 -41 0.7 48.4 3.7
4/27/21 - 0300 50.9 48.1 71 40.1 0.00 68.1 31.4 0.3 SSE | 162 1.4 270 -51 1.1 50.5 3.7
4/27/21 - 0200 51.9 50.7 66 40.7 0.00 68.1 31.4 0.9 E | 95 3.5 269 -42 2.1 53.7 3.7
4/27/21 - 0100 52.9 51.6 67 41.6 0.00 68.3 31.5 2.1 SSE | 148 5.9 269 -29 3.6 55.2 3.7
4/27/21 - 0000 54.3 52.8 61 40.8 0.00 68.5 31.5 1.4 ENE | 72 3.7 269 -26 2.4 56.3 3.7
4/26/21 - 2300 55.0 54.0 56 39.3 0.00 68.4 31.5 1.6 ESE | 102 3.7 269 -24 2.7 56.0 3.7
4/26/21 - 2200 55.1 54.2 51 36.7 0.00 68.6 31.5 0.6 E | 101 3.9 268 -23 2.3 55.0 3.7
4/26/21 - 2100 54.8 53.6 51 36.7 0.00 68.6 31.5 0.6 SSW | 200 2.6 268 -39 2.0 56.3 3.7
4/26/21 - 2000 55.2 54.5 49 36.0 0.00 68.7 31.5 2.8 WSW | 237 8.2 267 -31 5.2 57.2 3.7
4/26/21 - 1900 56.9 54.5 53 38.7 0.00 68.6 31.5 5.2 WSW | 238 12.1 267 -27 9.0 60.5 3.7
4/26/21 - 1800 60.7 56.6 48 39.1 0.00 68.6 31.5 6.3 WSW | 241 11.4 267 -5 8.3 67.4 3.7
4/26/21 - 1700 64.5 60.4 42 38.8 0.00 68.1 31.5 5.8 WSW | 256 11.7 266 145 8.9 75.6 3.7
4/26/21 - 1600 65.6 62.6 36 36.5 0.00 67.9 31.5 4.9 WSW | 249 11.0 266 252 8.2 82.6 3.7
4/26/21 - 1500 67.2 63.3 34 36.0 0.00 67.5 31.4 4.9 WSW | 247 12.0 266 551 8.6 84.6 3.8
4/26/21 - 1400 64.5 62.5 42 39.7 0.00 67.5 31.4 5.1 SSW | 198 12.0 266 440 9.2 87.4 3.7
4/26/21 - 1300 65.6 60.9 44 40.4 0.00 67.1 31.4 5.4 SSW | 206 12.7 266 464 8.6 91.8 3.7
4/26/21 - 1200 62.6 60.6 49 42.0 0.00 67.1 31.4 4.7 SSE | 168 12.5 266 292 8.2 90.0 3.7
4/26/21 - 1100 64.0 59.7 50 42.8 0.00 66.8 31.4 3.8 SE | 137 9.4 266 431 6.5 96.8 3.7
4/26/21 - 1000 62.4 59.5 50 42.4 0.00 66.8 31.4 2.1 ESE | 118 6.1 266 404 5.6 84.7 3.7
4/26/21 - 0900 61.9 57.3 55 42.8 0.00 67.1 31.4 1.3 NE | 49 4.8 266 256 2.5 80.0 3.7
4/26/21 - 0800 58.7 54.7 63 44.0 0.00 65.6 31.4 1.6 NE | 35 4.6 266 245 3.3 79.7 3.7
4/26/21 - 0700 54.8 50.9 70 43.9 0.00 67.2 31.4 0.5 NNE | 18 3.4 270 46 1.7 58.1 3.7
4/26/21 - 0600 51.1 50.0 77 43.4 0.00 67.3 31.5 0.3 SSE | 150 1.4 271 -20 0.7 49.4 3.7
4/26/21 - 0500 51.8 50.2 74 43.2 0.00 67.1 31.6 1.4 SW | 225 4.5 271 -38 3.5 50.6 3.7
4/26/21 - 0400 51.9 49.8 79 44.7 0.00 66.8 31.6 1.3 SW | 215 4.6 271 -14 3.6 50.9 3.7
4/26/21 - 0300 51.9 49.7 78 44.4 0.00 66.3 31.6 0.3 S | 189 1.4 272 -36 1.0 49.3 3.7
4/26/21 - 0200 52.6 51.7 75 44.6 0.00 66.1 31.6 0.6 SW | 216 2.8 271 -25 2.1 50.9 3.7
4/26/21 - 0100 52.4 51.8 75 44.5 0.00 65.7 31.7 1.0 SSW | 194 3.0 271 -27 1.9 51.0 3.7
4/26/21 - 0000 52.9 52.2 75 45.0 0.00 65.6 31.7 2.6 SW | 234 6.1 271 -14 4.1 51.3 3.7
4/25/21 - 2300 52.8 52.2 79 46.0 0.00 65.6 31.7 2.8 SW | 235 6.8 271 -7 4.4 51.8 3.7
4/25/21 - 2200 52.8 51.8 80 46.2 0.00 66.0 31.7 2.8 WSW | 239 6.8 271 -10 4.4 53.2 3.7
4/25/21 - 2100 54.2 52.5 73 45.0 0.00 68.5 31.7 4.8 WSW | 248 11.3 271 -21 8.4 55.6 3.7
4/25/21 - 2000 55.8 54.0 68 44.8 0.00 67.8 31.7 5.6 WSW | 240 11.1 269 -30 7.5 57.6 3.7
4/25/21 - 1900 57.3 55.7 64 44.3 0.00 68.9 31.7 5.5 WSW | 249 12.1 269 -32 9.0 61.2 3.7
4/25/21 - 1800 61.2 57.2 55 42.8 0.00 69.1 31.7 5.8 WSW | 249 11.6 268 3 8.4 67.0 3.7
4/25/21 - 1700 63.5 61.0 46 41.1 0.00 68.2 31.7 5.0 W | 262 11.9 267 86 8.3 73.6 3.7
4/25/21 - 1600 64.8 62.5 47 42.9 0.00 67.8 31.5 5.5 WSW | 243 10.6 267 215 7.4 79.7 3.7
4/25/21 - 1500 65.5 62.8 46 42.7 0.00 67.5 31.5 4.2 SSW | 194 8.7 267 206 6.0 88.4 3.7
4/25/21 - 1400 66.4 64.2 45 43.1 0.00 67.2 31.5 4.6 S | 186 11.2 266 405 8.5 97.4 3.7
4/25/21 - 1300 66.3 62.5 46 43.6 0.00 67.2 31.5 4.4 SE | 141 10.9 266 466 6.8 98.3 3.7
4/25/21 - 1200 64.8 61.7 50 44.0 0.00 67.0 31.5 3.4 ESE | 112 9.3 266 400 5.5 97.1 3.7
4/25/21 - 1100 63.5 61.1 51 43.9 0.00 66.9 31.5 2.2 ESE | 108 6.3 267 240 4.8 88.5 3.7
4/25/21 - 1000 61.7 59.2 54 44.0 0.00 66.9 31.5 2.4 ESE | 117 7.9 267 240 4.9 84.5 3.7
4/25/21 - 0900 61.8 57.9 59 45.2 0.00 67.1 31.4 1.5 ENE | 78 5.0 266 321 3.2 87.2 3.7
4/25/21 - 0800 59.5 54.2 69 45.9 0.00 66.9 31.5 0.7 NNE | 27 3.9 267 171 2.6 74.9 3.7
4/25/21 - 0700 54.6 52.5 75 45.7 0.00 67.6 31.5 0.7 NNW | 342 3.0 271 17 2.3 56.6 3.7
4/25/21 - 0600 52.6 51.6 78 45.5 0.00 67.6 31.6 1.3 SW | 225 3.6 272 -21 2.5 53.3 3.7
4/25/21 - 0500 51.7 49.5 84 45.9 0.00 67.7 31.6 0.2 WSW | 237 1.6 272 -7 1.3 52.4 3.7
4/25/21 - 0400 49.6 46.8 88 44.9 0.00 68.1 31.7 0.4 S | 174 1.9 273 -7 1.1 50.1 3.7
4/25/21 - 0300 47.3 46.1 89 43.5 0.00 68.2 31.7 0.2 SSE | 156 1.3 290 -17 0.9 45.3 3.7
4/25/21 - 0200 47.7 46.2 87 43.6 0.00 68.2 31.7 0.2 SSE | 161 1.2 289 -26 0.0 41.2 3.7
4/25/21 - 0100 48.6 47.0 86 43.6 0.00 68.6 31.8 0.3 SSE | 167 1.1 276 -35 0.0 40.7 3.7
4/25/21 - 0000 49.4 48.2 84 43.9 0.00 68.8 31.8 0.2 S | 169 1.1 265 -49 0.8 41.5 3.7
4/24/21 - 2300 51.0 48.8 80 43.9 0.00 68.8 31.9 0.4 S | 188 1.9 273 -57 0.0 43.3 3.7
4/24/21 - 2200 53.5 51.0 75 44.3 0.00 69.0 31.9 0.4 S | 188 2.0 271 -61 1.1 47.5 3.7
4/24/21 - 2100 55.3 53.2 70 44.4 0.00 69.0 31.9 1.7 SSW | 207 3.7 270 -66 2.6 50.1 3.7
4/24/21 - 2000 57.3 55.0 65 44.8 0.00 69.0 31.9 1.6 WSW | 252 5.8 269 -72 4.0 53.8 3.7
4/24/21 - 1900 60.3 57.2 61 45.4 0.00 68.9 31.9 2.6 WSW | 247 6.3 268 -71 4.6 60.8 3.7
4/24/21 - 1800 64.6 60.2 55 46.1 0.00 68.6 31.9 4.4 SW | 232 9.2 268 2 6.1 69.2 3.7
4/24/21 - 1700 66.3 64.1 51 46.7 0.00 68.5 31.8 4.2 S | 174 9.2 267 152 7.6 75.0 3.7
4/24/21 - 1600 67.8 65.8 50 47.3 0.00 68.1 31.8 4.3 SSE | 162 11.2 267 331 6.3 78.4 3.7
4/24/21 - 1500 69.2 66.7 49 47.5 0.00 67.8 31.8 4.7 SSE | 155 9.5 266 428 7.9 81.4 3.7
4/24/21 - 1400 70.7 67.8 45 47.2 0.00 67.7 31.7 2.4 NE | 54 8.4 266 451 4.6 90.9 3.7
4/24/21 - 1300 69.7 63.9 47 46.1 0.00 67.6 31.7 2.0 NE | 47 7.4 266 472 5.7 95.3 3.7
4/24/21 - 1200 66.9 63.9 51 46.5 0.00 67.5 31.7 1.5 NNE | 28 5.3 266 338 2.5 90.7 3.7
4/24/21 - 1100 64.0 60.8 55 46.2 0.00 67.5 31.7 1.0 NNW | 348 4.6 267 199 3.2 82.8 3.7
4/24/21 - 1000 61.7 59.5 58 46.1 0.00 67.5 31.8 1.7 WSW | 250 6.0 268 197 4.2 79.8 3.7
4/24/21 - 0900 59.8 58.8 62 46.4 0.00 67.6 31.8 1.2 WSW | 255 4.3 268 149 3.7 75.8 3.7
4/24/21 - 0800 59.4 54.9 68 46.4 0.00 67.6 31.8 0.8 WNW | 290 4.2 269 114 3.0 69.6 3.7
4/24/21 - 0700 55.1 51.5 75 46.0 0.00 67.9 31.8 1.4 W | 265 4.1 270 34 3.0 59.5 3.7
4/24/21 - 0600 52.4 49.9 81 45.0 0.00 68.0 31.9 0.3 SW | 220 2.3 272 -44 0.0 47.1 3.7
4/24/21 - 0500 54.2 52.3 74 45.5 0.00 68.1 31.9 1.4 SSW | 204 4.3 271 -47 2.8 52.1 3.7
4/24/21 - 0400 54.8 53.9 73 45.8 0.00 70.0 31.9 1.1 S | 186 3.6 271 -38 2.1 53.9 3.7
4/24/21 - 0300 55.6 54.7 70 45.8 0.00 69.9 31.9 0.9 SSW | 195 2.9 270 -27 2.2 56.7 3.7
4/24/21 - 0200 56.1 55.3 70 45.9 0.00 69.3 31.9 2.3 SW | 227 5.1 270 -16 3.5 57.8 3.7
4/24/21 - 0100 56.7 55.9 69 46.1 0.00 68.5 31.9 2.0 S | 176 4.6 269 -15 2.5 58.6 3.7
4/24/21 - 0000 57.2 56.4 66 45.7 0.00 68.5 31.9 1.5 SSW | 202 3.2 269 -16 2.3 59.1 3.7
4/23/21 - 2300 57.4 56.9 67 46.0 0.00 68.8 32.0 1.0 S | 188 2.8 269 -16 1.9 59.6 3.7
4/23/21 - 2200 57.2 56.7 66 45.9 0.00 68.7 32.0 1.9 S | 183 4.2 269 -17 3.2 60.2 3.7
4/23/21 - 2100 57.8 56.9 65 45.8 0.00 68.8 32.0 2.0 S | 174 4.3 269 -18 3.3 60.7 3.7
4/23/21 - 2000 57.8 57.4 65 46.1 0.00 68.7 32.0 2.4 SSW | 199 4.6 269 -18 3.3 61.2 3.7
4/23/21 - 1900 59.4 57.5 65 46.8 0.00 68.5 32.0 2.4 S | 176 5.2 269 -18 3.7 64.4 3.7
4/23/21 - 1800 61.1 59.2 62 46.5 0.00 68.4 32.0 3.4 S | 173 8.2 268 5 7.4 70.2 3.7
4/23/21 - 1700 63.1 61.0 56 46.2 0.00 68.2 31.9 3.9 S | 179 9.7 268 94 6.4 76.9 3.7
4/23/21 - 1600 65.4 62.4 53 46.1 0.00 68.1 31.9 4.5 SSE | 164 10.9 267 238 7.7 78.2 3.7
4/23/21 - 1500 66.6 64.4 49 46.1 0.00 68.1 31.9 2.7 E | 85 7.2 267 300 5.4 84.4 3.7
4/23/21 - 1400 67.4 62.7 50 45.8 0.00 67.6 31.9 2.1 ESE | 106 6.8 266 388 4.1 91.7 3.7
4/23/21 - 1300 62.8 59.8 57 46.0 0.00 67.9 31.9 2.1 SE | 132 6.1 267 206 5.2 82.6 3.7
4/23/21 - 1200 60.4 58.9 62 46.9 0.00 68.0 32.0 3.0 ESE | 112 7.0 268 160 4.5 74.2 3.7
4/23/21 - 1100 60.5 59.0 61 46.3 0.00 68.0 32.0 2.0 SE | 146 6.6 268 156 4.1 75.9 3.7
4/23/21 - 1000 60.5 58.1 61 45.6 0.00 68.0 32.0 1.3 NE | 56 3.4 268 142 2.6 74.5 3.7
4/23/21 - 0900 58.8 56.5 64 45.6 0.00 68.0 32.0 0.6 E | 82 3.7 269 87 2.7 67.8 3.7
4/23/21 - 0800 57.1 55.2 70 46.5 0.00 68.2 32.0 0.7 NE | 53 2.6 269 75 1.9 65.4 3.7
4/23/21 - 0700 55.5 54.4 73 46.3 0.00 68.3 32.0 0.6 SW | 233 2.8 270 18 1.7 58.8 3.7
4/23/21 - 0600 54.6 53.4 75 46.0 0.00 68.4 32.1 0.4 WSW | 252 2.3 270 -7 1.8 55.7 3.7
4/23/21 - 0500 53.7 52.8 77 46.0 0.00 67.9 32.1 0.3 SW | 215 2.1 270 -19 1.4 52.9 3.7
4/23/21 - 0400 53.7 52.8 76 45.8 0.00 68.7 32.1 0.1 NNW | 348 1.4 271 -24 1.0 53.8 3.7
4/23/21 - 0300 53.4 52.6 76 45.7 0.00 68.7 32.2 0.7 WSW | 240 3.2 270 -16 2.4 53.7 3.7
4/23/21 - 0200 53.0 52.5 76 45.4 0.00 69.0 32.2 1.9 WSW | 242 4.5 270 -14 3.0 54.0 3.7
4/23/21 - 0100 52.8 52.2 77 45.3 0.00 69.0 32.2 2.2 SW | 234 5.6 270 -13 3.8 53.8 3.7
4/23/21 - 0000 52.9 52.3 76 45.1 0.00 69.3 32.3 2.8 SW | 224 8.0 270 -16 5.7 54.0 3.7
4/22/21 - 2300 53.4 52.4 75 45.3 0.00 69.2 32.3 3.3 SSW | 210 7.4 270 -26 5.3 54.3 3.7
4/22/21 - 2200 56.1 53.2 71 45.4 0.00 69.4 32.3 1.9 SSW | 198 3.9 270 -58 3.5 56.8 3.7
4/22/21 - 2100 56.8 55.8 68 45.8 0.00 69.5 32.3 2.6 SW | 234 5.8 269 -31 4.1 58.8 3.7
4/22/21 - 2000 57.6 56.6 66 45.8 0.00 69.3 32.3 3.2 SW | 234 5.5 269 -22 4.6 59.9 3.7
4/22/21 - 1900 57.7 56.9 65 45.7 0.00 69.4 32.3 2.6 S | 182 6.5 269 -19 3.9 62.3 3.7
4/22/21 - 1800 60.1 57.5 62 45.6 0.00 69.5 32.3 3.9 S | 179 8.3 268 0 6.6 68.3 3.7
4/22/21 - 1700 62.5 59.9 57 45.9 0.00 69.2 32.4 3.2 SSE | 166 7.7 268 58 5.8 74.8 3.7
4/22/21 - 1600 63.4 62.2 54 45.8 0.00 69.0 32.3 3.4 S | 177 8.5 267 114 6.5 78.7 3.7
4/22/21 - 1500 64.6 63.0 52 46.0 0.00 68.9 32.3 4.4 S | 181 10.0 267 178 6.4 85.6 3.7
4/22/21 - 1400 65.4 63.7 51 46.1 0.00 68.6 32.3 3.9 S | 189 9.8 266 265 6.6 96.1 3.7
4/22/21 - 1300 66.1 63.2 51 46.2 0.00 68.6 32.2 3.3 SSE | 166 11.1 266 442 8.9 98.6 3.7
4/22/21 - 1200 64.7 61.7 53 46.0 0.00 68.5 32.3 2.5 SSW | 192 8.5 266 342 5.2 93.0 3.7
4/22/21 - 1100 63.2 61.2 55 45.9 0.00 68.5 32.3 2.8 SE | 131 9.4 267 270 7.0 85.8 3.7
4/22/21 - 1000 63.4 60.3 56 45.7 0.00 68.4 32.3 1.1 N | 8 4.0 268 203 3.0 81.8 3.7
4/22/21 - 0900 61.4 58.2 61 46.4 0.00 68.4 32.3 0.7 NNW | 344 3.2 267 218 2.8 81.0 3.7
4/22/21 - 0800 58.4 56.1 67 46.0 0.00 68.5 32.3 1.0 S | 179 3.8 269 100 3.4 69.2 3.7
4/22/21 - 0700 56.4 54.1 72 46.4 0.00 68.6 32.4 0.4 S | 172 2.1 269 35 1.7 62.2 3.7
4/22/21 - 0600 54.3 53.6 75 46.0 0.00 68.7 32.4 1.1 S | 187 3.0 270 -9 2.0 56.1 3.7
4/22/21 - 0500 54.0 53.6 74 45.7 0.00 71.9 32.4 1.0 S | 178 3.8 270 -18 2.4 56.1 3.7
4/22/21 - 0400 54.4 53.7 73 45.8 0.00 69.0 32.5 1.2 SSW | 194 3.1 270 -23 2.2 54.7 3.7
4/22/21 - 0300 54.4 53.6 73 45.4 0.00 69.3 32.5 0.3 SSW | 197 1.3 270 -20 0.0 54.0 3.7
4/22/21 - 0200 54.5 53.9 72 45.3 0.00 67.3 32.5 0.1 SSW | 198 1.1 270 -20 0.9 54.9 3.7
4/22/21 - 0100 54.5 54.0 72 45.3 0.00 67.3 32.5 1.3 SW | 224 3.4 270 -17 2.6 54.6 3.7
4/22/21 - 0000 54.5 54.0 72 45.2 0.00 66.9 32.6 2.0 SSW | 202 5.8 270 -20 3.9 54.5 3.7
4/21/21 - 2300 54.4 53.2 71 44.7 0.00 67.0 32.6 1.3 S | 178 4.5 270 -30 3.2 53.5 3.7
4/21/21 - 2200 55.9 53.8 67 44.2 0.00 67.5 32.6 1.3 S | 169 3.1 270 -45 2.4 55.7 3.7
4/21/21 - 2100 55.9 55.4 66 44.5 0.00 69.4 32.6 1.2 SSE | 148 3.8 269 -22 2.6 56.5 3.7
4/21/21 - 2000 56.1 55.4 65 44.2 0.00 69.1 32.7 1.8 S | 177 3.7 269 -19 2.6 57.4 3.7
4/21/21 - 1900 56.8 55.9 64 44.2 0.00 69.9 32.7 2.2 S | 188 5.5 269 -18 4.0 59.7 3.7
4/21/21 - 1800 58.8 56.7 61 44.1 0.00 70.4 32.7 3.2 SSE | 164 7.7 269 -7 6.6 64.4 3.7
4/21/21 - 1700 60.7 58.8 56 44.0 0.00 70.9 32.7 3.2 S | 187 7.7 268 20 5.9 71.1 3.7
4/21/21 - 1600 61.4 60.3 53 43.8 0.00 72.1 32.7 3.1 S | 184 6.9 268 99 5.3 76.8 3.7
4/21/21 - 1500 61.2 60.3 53 43.4 0.00 71.6 32.7 2.9 SSW | 202 7.2 267 114 5.6 76.5 3.7
4/21/21 - 1400 61.1 60.0 54 43.7 0.00 73.4 32.8 3.4 SSW | 200 7.5 267 153 5.1 76.8 3.7
4/21/21 - 1300 60.6 58.6 57 44.2 0.00 70.3 32.8 4.1 SSE | 159 10.4 267 122 7.4 72.3 3.7
4/21/21 - 1200 59.7 58.9 59 44.8 0.00 70.2 32.8 3.6 SSE | 163 8.8 268 56 6.7 67.7 3.7
4/21/21 - 1100 60.3 59.0 59 45.5 0.00 70.1 32.8 3.0 ESE | 122 8.0 268 113 4.7 77.9 3.7
4/21/21 - 1000 59.7 57.8 64 46.4 0.00 70.4 32.8 3.5 SSE | 153 8.2 268 187 5.6 80.1 3.7
4/21/21 - 0900 60.1 58.5 60 45.3 0.00 70.3 32.8 2.5 ESE | 114 7.3 267 181 4.4 77.4 3.7
4/21/21 - 0800 59.3 56.6 63 45.4 0.00 70.4 32.9 1.5 SE | 139 6.1 267 127 3.7 72.7 3.7
4/21/21 - 0700 56.6 54.6 69 45.5 0.00 70.8 32.9 1.1 SSE | 149 4.7 268 40 3.1 62.4 3.7
4/21/21 - 0600 54.8 53.8 71 45.3 0.00 70.8 32.9 0.4 SE | 145 1.9 270 -19 1.3 56.0 3.7
4/21/21 - 0500 54.9 53.7 70 44.9 0.00 71.0 33.0 0.7 ESE | 120 4.1 270 -40 2.2 54.8 3.7
4/21/21 - 0400 55.3 54.5 68 44.5 0.00 71.0 33.0 1.8 E | 96 5.2 269 -35 3.6 55.6 3.7
4/21/21 - 0300 55.2 54.7 68 44.6 0.00 71.4 33.0 2.3 E | 91 6.8 269 -21 4.7 56.0 3.7
4/21/21 - 0200 55.7 55.0 69 45.4 0.00 71.4 33.1 2.2 E | 88 7.3 269 -18 4.1 56.3 3.7
4/21/21 - 0100 55.6 55.2 68 45.1 0.00 71.8 33.1 2.3 ESE | 105 6.9 269 -20 3.5 56.3 3.7
4/21/21 - 0000 55.5 55.0 71 46.1 0.00 71.6 33.1 2.2 ESE | 108 6.5 269 -17 3.8 56.9 3.7
4/20/21 - 2300 56.3 55.3 73 47.3 0.00 72.0 33.2 1.7 ESE | 105 7.7 269 -19 3.6 57.6 3.7
4/20/21 - 2200 55.8 54.7 73 47.1 0.00 72.0 33.2 1.6 SE | 140 5.1 269 -34 3.8 56.5 3.7
4/20/21 - 2100 57.5 54.2 73 47.0 0.00 72.2 33.2 2.0 SSE | 152 7.1 270 -79 4.6 55.2 3.7
4/20/21 - 2000 60.6 57.5 61 45.5 0.00 72.0 33.3 2.0 SE | 126 6.3 268 -85 3.4 58.1 3.7
4/20/21 - 1900 65.4 60.5 47 42.5 0.00 72.1 33.3 2.0 ESE | 115 4.6 266 -84 3.3 66.0 3.7
4/20/21 - 1800 69.7 65.3 37 40.8 0.00 71.9 33.2 2.8 ESE | 113 6.2 266 -3 4.3 73.2 3.8
4/20/21 - 1700 71.6 69.1 29 36.5 0.00 69.3 33.2 3.7 SE | 124 7.7 264 150 4.5 77.1 3.8
4/20/21 - 1600 73.7 69.9 32 40.2 0.00 68.9 33.1 4.6 ESE | 115 10.2 264 305 5.9 81.0 3.8
4/20/21 - 1500 74.7 72.7 29 39.7 0.00 68.1 33.1 4.2 ESE | 115 10.0 264 439 5.6 86.0 3.8
4/20/21 - 1400 75.5 73.6 29 40.4 0.00 67.7 33.0 4.4 ESE | 123 10.7 264 526 7.1 91.1 3.8
4/20/21 - 1300 76.4 73.5 36 46.0 0.00 67.7 33.0 4.0 ESE | 105 9.8 264 574 6.8 103.3 3.8
4/20/21 - 1200 76.5 73.0 39 48.0 0.00 67.8 32.9 3.1 ENE | 57 6.7 264 577 4.3 109.5 3.8
4/20/21 - 1100 73.5 70.0 41 47.1 0.00 68.6 32.9 3.1 NE | 47 7.6 264 542 4.2 108.4 3.8
4/20/21 - 1000 70.8 66.4 49 48.4 0.00 68.2 32.9 2.1 NE | 41 5.2 264 467 4.2 91.0 3.8
4/20/21 - 0900 66.6 62.9 57 49.1 0.00 68.6 32.9 1.8 NE | 49 4.9 265 359 3.8 82.1 3.7
4/20/21 - 0800 63.0 56.5 68 48.5 0.00 69.0 32.9 1.4 NE | 41 5.2 266 207 2.4 75.9 3.7
4/20/21 - 0700 56.5 49.9 82 47.7 0.00 70.4 33.1 0.4 ENE | 74 2.9 274 74 1.9 52.1 3.7
4/20/21 - 0600 50.0 48.9 88 46.1 0.00 70.7 33.1 0.2 SSE | 162 1.0 327 -12 0.0 40.5 3.7
4/20/21 - 0500 50.5 49.2 86 45.7 0.00 71.0 33.2 0.4 SSE | 167 1.3 307 -28 0.0 41.2 3.7
4/20/21 - 0400 51.0 50.1 84 45.8 0.00 71.3 33.3 0.3 S | 169 1.7 281 -39 0.0 42.2 3.7
4/20/21 - 0300 52.0 50.6 82 45.7 0.00 71.4 33.3 0.4 SSE | 152 1.7 264 -56 0.8 42.9 3.7
4/20/21 - 0200 54.1 51.7 78 46.3 0.00 71.1 33.4 0.3 S | 176 1.4 270 -64 0.8 44.3 3.7
4/20/21 - 0100 56.8 54.0 71 46.3 0.00 71.6 33.4 0.1 SE | 140 1.6 271 -70 0.0 47.9 3.7
4/20/21 - 0000 59.1 56.5 64 45.9 0.00 72.1 33.5 0.5 ESE | 109 2.1 269 -75 2.0 51.2 3.7
4/19/21 - 2300 61.8 58.9 58 45.8 0.00 72.1 33.4 1.0 E | 84 3.1 267 -78 1.6 54.0 3.7
4/19/21 - 2200 65.2 61.1 51 44.9 0.00 72.1 33.5 0.3 ESE | 106 2.1 266 -77 0.5 55.5 3.7
4/19/21 - 2100 67.9 65.1 40 41.9 0.00 72.3 33.5 0.5 ESE | 106 3.0 266 -79 1.1 57.5 3.7
4/19/21 - 2000 75.1 67.8 25 33.6 0.00 72.2 33.5 0.6 S | 179 2.8 264 -82 1.6 66.2 3.7
4/19/21 - 1900 81.6 75.0 20 33.1 0.00 71.7 33.4 1.9 WSW | 256 5.2 263 -90 3.5 78.4 3.8
4/19/21 - 1800 85.1 81.5 12 23.8 0.00 71.6 33.4 2.3 W | 276 8.3 262 -14 6.9 85.3 3.8
4/19/21 - 1700 85.9 84.2 9 20.4 0.00 71.3 33.3 4.9 W | 266 10.1 261 144 7.4 90.2 3.8
4/19/21 - 1600 87.5 85.3 10 24.4 0.00 70.7 33.2 5.2 WSW | 239 11.0 261 295 10.7 95.3 3.8
4/19/21 - 1500 88.0 85.9 9 21.1 0.00 70.3 33.1 5.7 SSW | 208 10.7 261 424 8.1 97.8 3.8
4/19/21 - 1400 89.1 87.0 7 17.3 0.00 69.9 33.1 6.5 SW | 218 12.2 261 512 10.0 109.1 3.8
4/19/21 - 1300 89.6 87.8 10 25.0 0.00 69.4 33.0 6.0 S | 171 13.5 261 561 10.5 122.6 3.8
4/19/21 - 1200 89.7 87.5 10 24.5 0.00 69.1 33.0 4.4 S | 170 10.7 261 565 7.4 125.9 3.8
4/19/21 - 1100 89.2 84.5 9 22.0 0.00 68.8 33.0 1.7 NNE | 19 4.2 260 523 4.4 124.7 3.8
4/19/21 - 1000 84.7 80.1 12 25.4 0.00 65.6 33.1 1.6 NE | 41 5.5 260 456 2.9 103.2 3.8
4/19/21 - 0900 80.5 75.5 15 26.5 0.00 66.0 33.1 1.9 E | 98 5.2 260 353 3.5 93.5 3.7
4/19/21 - 0800 75.5 62.6 25 31.2 0.00 69.1 33.1 1.3 ESE | 102 5.0 262 230 3.3 84.3 3.7
4/19/21 - 0700 62.6 53.3 39 32.8 0.00 69.4 33.3 0.2 E | 88 1.5 263 18 0.5 50.8 3.7
4/19/21 - 0600 53.6 51.2 39 28.4 0.00 69.7 33.4 0.6 SSW | 195 2.3 266 -53 1.9 42.8 3.7
4/19/21 - 0500 53.6 51.1 39 28.4 0.00 69.8 33.5 0.5 S | 179 2.7 266 -62 1.8 41.8 3.7
4/19/21 - 0400 55.1 53.3 37 28.4 0.00 70.2 33.5 0.7 SSE | 156 2.2 266 -62 1.5 43.3 3.7
4/19/21 - 0300 55.6 53.4 37 29.0 0.00 70.3 33.5 0.5 SSE | 162 2.7 266 -63 1.5 45.9 3.7
4/19/21 - 0200 58.9 55.3 34 28.4 0.00 70.5 33.6 0.9 S | 177 3.5 265 -66 2.3 48.8 3.7
4/19/21 - 0100 61.6 58.1 30 28.0 0.00 70.6 33.6 1.0 SSE | 156 4.1 264 -68 2.8 49.2 3.7
4/19/21 - 0000 62.6 60.0 28 28.3 0.00 70.9 33.7 1.1 SSE | 156 3.2 264 -70 2.0 51.7 3.7
4/18/21 - 2300 63.4 61.2 28 29.0 0.00 70.9 33.6 1.0 SSE | 156 2.9 264 -71 2.3 53.5 3.7
4/18/21 - 2200 64.2 61.7 29 30.5 0.00 70.9 33.7 1.4 SSE | 155 3.1 264 -74 2.0 53.7 3.7
4/18/21 - 2100 70.3 63.0 27 30.2 0.00 71.0 33.7 1.0 SSE | 155 3.7 264 -79 2.3 59.8 3.7
4/18/21 - 2000 71.3 70.1 21 28.8 0.00 70.9 33.7 2.4 SW | 219 5.0 263 -88 4.0 64.2 3.7
4/18/21 - 1900 75.2 71.2 19 28.0 0.00 70.7 33.7 3.6 SW | 223 7.6 262 -92 5.3 74.8 3.7
4/18/21 - 1800 78.7 75.1 16 27.5 0.00 72.2 33.6 5.7 SW | 231 12.8 262 -11 8.7 83.3 3.8
4/18/21 - 1700 83.8 78.5 13 26.6 0.00 72.3 33.5 5.4 W | 266 13.5 262 146 10.3 92.5 3.8
4/18/21 - 1600 88.4 83.7 7 15.0 0.00 72.1 33.4 3.4 NW | 318 11.2 262 288 8.5 95.1 3.8
4/18/21 - 1500 87.7 85.8 5 7.9 0.00 69.3 33.3 3.7 N | 8 10.8 261 414 5.7 95.8 3.8
4/18/21 - 1400 86.8 84.0 5 8.9 0.00 68.8 33.3 4.5 NNE | 22 12.8 261 506 6.4 97.6 3.8
4/18/21 - 1300 84.8 83.0 6 8.9 0.00 68.6 33.3 4.7 NNE | 16 12.0 260 559 6.2 106.0 3.8
4/18/21 - 1200 83.6 80.4 6 9.4 0.00 68.0 33.3 4.9 NNE | 14 13.5 261 576 6.6 109.3 3.7
4/18/21 - 1100 81.4 77.0 7 10.9 0.00 68.2 33.3 5.9 NNE | 18 14.6 261 543 5.4 108.7 3.7
4/18/21 - 1000 77.6 75.1 9 12.9 0.00 68.1 33.4 5.7 NNE | 14 12.5 261 467 5.9 92.6 3.8
4/18/21 - 0900 75.3 71.8 11 15.7 0.00 68.0 33.4 4.7 NNE | 14 12.8 262 355 5.7 83.7 3.7
4/18/21 - 0800 71.8 66.7 15 19.5 0.00 68.4 33.4 1.7 NNW | 348 8.2 262 229 5.8 79.8 3.7
4/18/21 - 0700 66.8 57.4 20 21.4 0.00 68.7 33.6 1.0 NNW | 348 6.9 263 4 3.4 56.5 3.7
4/18/21 - 0600 60.0 57.4 28 25.9 0.00 68.8 33.7 0.7 SSW | 205 2.5 266 -59 1.6 44.8 3.7
4/18/21 - 0500 60.0 52.2 37 29.7 0.00 69.2 33.7 1.0 W | 260 3.5 267 -64 2.8 44.7 3.7
4/18/21 - 0400 54.7 52.8 42 31.5 0.00 69.4 33.8 0.8 SSE | 157 2.7 268 -63 3.0 43.8 3.7
4/18/21 - 0300 55.0 53.5 47 34.6 0.00 69.7 33.9 1.1 SSE | 153 3.3 268 -63 1.4 42.4 3.7
4/18/21 - 0200 54.2 53.4 54 37.4 0.00 69.9 33.9 0.7 SSE | 157 2.5 268 -63 1.4 42.6 3.7
4/18/21 - 0100 54.8 53.4 58 40.0 0.00 70.1 33.9 0.4 SSE | 158 2.0 269 -64 1.5 45.6 3.7
4/18/21 - 0000 57.8 54.6 57 41.3 0.00 72.2 34.0 0.3 SSE | 162 1.5 269 -66 1.1 48.1 3.7
4/17/21 - 2300 59.4 57.4 54 41.8 0.00 72.4 34.0 0.6 S | 176 2.9 268 -66 2.3 48.5 3.7
4/17/21 - 2200 62.6 59.0 50 42.2 0.00 70.3 34.0 0.3 SSE | 160 1.6 267 -68 1.1 54.3 3.7
4/17/21 - 2100 66.6 62.6 44 42.0 0.00 69.9 34.0 1.3 SW | 216 4.3 266 -76 3.1 60.2 3.7
4/17/21 - 2000 69.6 66.3 37 40.5 0.00 69.4 34.0 2.8 SW | 215 5.9 266 -82 4.1 63.9 3.7
4/17/21 - 1900 74.3 69.6 31 39.7 0.00 72.8 34.0 2.1 SSW | 211 4.7 266 -82 3.5 75.0 3.7
4/17/21 - 1800 77.0 74.2 24 36.6 0.00 72.4 33.9 3.4 SW | 235 7.2 264 -8 6.0 82.1 3.8
4/17/21 - 1700 79.9 76.7 25 39.9 0.00 71.6 33.9 2.7 W | 274 7.7 264 144 6.3 86.1 3.8
4/17/21 - 1600 80.9 77.9 30 44.8 0.00 70.8 33.8 2.5 NW | 304 8.5 265 294 7.2 90.3 3.8
4/17/21 - 1500 81.5 79.3 33 48.3 0.00 69.4 33.7 2.2 N | 2 7.2 265 412 7.0 92.8 3.7
4/17/21 - 1400 81.1 79.4 31 47.1 0.00 68.1 33.6 2.5 NE | 51 5.3 265 499 2.9 94.3 3.7
4/17/21 - 1300 80.5 75.8 30 44.2 0.00 66.6 33.6 2.1 NE | 51 5.2 264 553 5.2 106.5 3.7
4/17/21 - 1200 77.5 72.6 36 46.0 0.00 65.4 33.6 1.5 N | 8 4.1 264 564 3.5 110.3 3.7
4/17/21 - 1100 73.3 65.7 45 47.6 0.00 64.5 33.6 1.2 NNE | 14 3.9 265 533 3.2 109.5 3.7
4/17/21 - 1000 66.5 61.2 56 47.6 0.00 64.3 33.7 1.4 NNE | 28 4.7 266 459 3.2 85.4 3.7
4/17/21 - 0900 61.3 56.9 65 47.8 0.00 64.5 33.7 1.3 NE | 47 4.1 266 349 3.2 73.4 3.7
4/17/21 - 0800 56.9 51.4 81 48.4 0.00 65.8 33.7 1.0 ENE | 58 3.9 268 236 2.9 66.7 3.7
4/17/21 - 0700 51.6 46.5 92 46.9 0.00 65.8 33.9 0.1 NE | 56 1.8 291 54 0.3 50.4 3.7
4/17/21 - 0600 46.6 45.5 92 44.0 0.00 67.1 33.9 0.0 N | 0 0.0 330 -4 0.0 38.2 3.7
4/17/21 - 0500 47.2 46.1 92 44.4 0.00 66.7 33.9 0.2 SSE | 159 1.1 372 -16 0.0 36.9 3.7
4/17/21 - 0400 48.1 46.6 91 44.8 0.00 66.5 34.0 0.2 S | 170 1.6 355 -19 0.0 38.7 3.7
4/17/21 - 0300 49.0 46.9 89 44.8 0.00 66.4 34.1 0.4 SSE | 166 1.6 331 -23 1.1 40.1 3.7
4/17/21 - 0200 50.9 48.7 86 45.8 0.00 68.9 34.1 0.4 S | 176 2.0 305 -30 0.8 41.2 3.7
4/17/21 - 0100 51.4 50.5 82 45.7 0.00 69.4 34.2 0.0 SE | 142 0.8 274 -46 0.0 42.6 3.7
4/17/21 - 0000 52.0 51.0 81 45.9 0.00 69.2 34.2 0.2 SE | 142 1.5 262 -58 0.0 42.9 3.7
4/16/21 - 2300 53.9 51.7 79 46.4 0.00 69.6 34.2 0.3 SSW | 192 1.8 273 -62 0.9 45.4 3.7
4/16/21 - 2200 55.8 53.7 74 47.1 0.00 69.8 34.3 0.3 ESE | 111 2.6 273 -70 1.0 47.8 3.7
4/16/21 - 2100 58.8 55.5 70 47.1 0.00 69.7 34.3 0.5 ESE | 119 2.2 271 -74 1.1 52.0 3.7
4/16/21 - 2000 62.2 58.6 62 47.0 0.00 69.8 34.3 0.4 ESE | 105 1.9 269 -81 1.4 55.8 3.7
4/16/21 - 1900 67.8 62.0 54 47.4 0.00 69.6 34.2 0.9 NE | 51 3.1 268 -84 2.2 69.0 3.7
4/16/21 - 1800 74.0 67.7 37 42.8 0.00 69.2 34.2 1.4 NNE | 12 4.5 266 -11 4.6 76.6 3.7
4/16/21 - 1700 76.0 73.7 27 38.0 0.00 68.8 34.2 1.6 NNW | 341 6.1 264 144 5.3 80.9 3.8
4/16/21 - 1600 77.3 75.4 27 39.8 0.00 68.4 34.1 2.1 NNW | 331 6.6 264 295 6.2 87.1 3.8
4/16/21 - 1500 80.0 75.5 29 43.0 0.00 67.3 34.0 2.7 NW | 307 10.1 264 419 9.5 92.0 3.8
4/16/21 - 1400 80.1 77.0 31 45.4 0.00 67.2 34.0 1.8 NNW | 346 6.8 264 493 5.7 97.9 3.8
4/16/21 - 1300 79.1 75.8 29 42.7 0.00 70.4 33.9 1.7 NNW | 346 6.3 264 546 5.8 108.2 3.7
4/16/21 - 1200 76.3 70.8 34 43.5 0.00 69.7 33.9 1.5 NNE | 12 6.0 264 566 4.8 114.1 3.7
4/16/21 - 1100 72.9 66.6 40 44.2 0.00 68.7 33.9 1.6 NNE | 20 4.7 264 533 3.5 111.1 3.7
4/16/21 - 1000 67.5 62.1 50 45.3 0.00 68.0 33.9 1.6 NE | 39 4.5 265 458 3.5 89.2 3.7
4/16/21 - 0900 62.5 57.4 62 46.8 0.00 66.7 34.0 1.0 N | 11 4.2 266 344 2.9 71.5 3.7
4/16/21 - 0800 57.3 49.8 84 47.5 0.00 66.8 34.1 0.6 ESE | 115 2.2 268 173 2.0 65.5 3.7
4/16/21 - 0700 50.1 48.9 91 47.0 0.00 67.2 34.1 1.0 SSW | 209 3.7 273 42 2.8 56.7 3.7
4/16/21 - 0600 49.4 48.0 90 46.0 0.00 67.4 34.2 1.0 S | 169 2.6 260 -6 1.8 49.0 3.7
4/16/21 - 0500 50.6 49.2 88 46.5 0.00 67.5 34.2 1.1 S | 175 2.6 255 -21 1.7 50.5 3.7
4/16/21 - 0400 51.0 50.3 88 47.4 0.00 67.5 34.3 1.3 S | 187 3.6 272 -9 2.3 52.3 3.7
4/16/21 - 0300 50.6 49.5 90 47.4 0.00 67.8 34.3 0.5 SSE | 147 2.3 289 -4 2.0 53.0 3.7
4/16/21 - 0200 49.7 46.9 90 44.8 0.00 68.2 34.3 0.4 SSE | 151 3.0 308 -11 1.9 47.4 3.7
4/16/21 - 0100 48.7 47.2 88 44.3 0.00 68.2 34.3 0.2 SSE | 168 1.2 315 -26 0.8 39.8 3.7
4/16/21 - 0000 50.5 48.6 86 45.7 0.00 68.3 34.4 0.2 SSE | 168 1.0 283 -35 0.0 41.2 3.7
4/15/21 - 2300 51.7 50.3 81 45.4 0.00 68.7 34.4 0.1 SSE | 148 1.2 253 -56 0.4 42.1 3.7
4/15/21 - 2200 53.3 51.3 75 44.7 0.00 68.6 34.5 0.3 S | 185 2.4 268 -64 1.7 44.5 3.7
4/15/21 - 2100 55.6 53.1 70 44.8 0.00 68.6 34.5 0.3 S | 177 2.0 268 -68 1.3 49.2 3.7
4/15/21 - 2000 59.6 55.4 53 41.1 0.00 68.6 34.5 0.8 W | 263 3.2 268 -75 2.8 56.4 3.7
4/15/21 - 1900 64.1 59.5 49 42.0 0.00 68.5 34.5 1.5 WNW | 296 5.0 267 -78 4.2 63.9 3.7
4/15/21 - 1800 69.2 64.1 37 39.2 0.00 67.8 34.5 2.1 WNW | 288 7.4 266 -17 5.5 75.1 3.8
4/15/21 - 1700 70.5 68.4 28 35.2 0.00 67.5 34.4 3.6 W | 259 10.7 265 144 7.8 78.4 3.7
4/15/21 - 1600 73.0 68.8 31 38.5 0.00 67.4 34.4 4.0 WSW | 256 10.2 265 285 7.1 82.0 3.8
4/15/21 - 1500 71.3 69.2 38 43.0 0.00 67.1 34.3 5.6 SW | 236 12.4 266 433 9.5 85.7 3.8
4/15/21 - 1400 70.4 68.5 41 44.5 0.00 66.8 34.3 4.0 SSE | 165 9.9 266 521 7.0 88.3 3.8
4/15/21 - 1300 70.8 68.4 40 43.9 0.00 66.3 34.2 3.4 ESE | 110 8.0 265 564 6.3 94.5 3.8
4/15/21 - 1200 70.8 68.1 35 40.8 0.00 65.9 34.2 2.8 NE | 48 6.1 265 578 5.6 104.5 3.8
4/15/21 - 1100 69.5 64.3 37 39.8 0.00 65.8 34.2 1.7 N | 9 5.3 264 516 4.8 103.8 3.8
4/15/21 - 1000 64.8 59.4 45 41.0 0.00 65.8 34.3 1.5 NNE | 23 3.9 264 457 4.0 83.9 3.7
4/15/21 - 0900 59.9 54.5 56 41.3 0.00 66.0 34.3 1.6 NE | 52 4.8 266 350 3.9 69.2 3.7
4/15/21 - 0800 54.7 50.8 66 41.7 0.00 66.2 34.4 1.1 NE | 43 3.5 267 218 2.3 59.4 3.7
4/15/21 - 0700 51.0 43.0 84 41.6 0.00 66.6 34.5 1.2 WSW | 250 4.2 331 74 3.0 44.6 3.7
4/15/21 - 0600 43.4 39.9 90 39.2 0.00 66.9 34.5 0.9 SSW | 202 3.5 361 -8 1.9 35.3 3.7
4/15/21 - 0500 41.8 40.7 90 38.7 0.00 67.0 34.6 0.6 S | 180 1.8 357 -19 1.0 33.5 3.7
4/15/21 - 0400 43.0 41.2 89 39.2 0.00 67.3 34.6 0.3 SSE | 168 1.4 342 -23 1.1 34.4 3.7
4/15/21 - 0300 45.1 42.8 86 39.8 0.00 67.5 34.7 0.3 S | 174 3.3 320 -31